Time;durP1;ratioP1;P1;durP2;ratioP2;P2;SDS_P1;SDS_P2;PMS_P1;PMS_P2;Temp;Humidity;BMP_temperature;BMP_pressure;BME280_temperature;BME280_humidity;BME280_pressure;Samples;Min_cycle;Max_cycle;Signal;HPM_P1;HPM_P2
2023/01/13 00:04:30;;;;;;;2.73;2.53;;;11.70;99.90;;;;;;10539210;28;20838;-81
2023/01/13 00:09:33;;;;;;;1.87;1.77;;;11.70;99.50;;;;;;10544607;28;21890;-81
2023/01/13 00:14:35;;;;;;;4.60;1.97;;;11.80;99.70;;;;;;10541458;28;20656;-80
2023/01/13 00:19:38;;;;;;;2.10;1.80;;;11.80;99.70;;;;;;10540922;28;20226;-83
2023/01/13 00:24:43;;;;;;;2.83;2.17;;;11.80;99.80;;;;;;10537049;28;20362;-82
2023/01/13 00:29:45;;;;;;;2.90;2.07;;;11.80;99.70;;;;;;10519675;28;20227;-81
2023/01/13 00:34:49;;;;;;;1.87;1.77;;;11.80;99.70;;;;;;10540762;28;20195;-81
2023/01/13 00:39:51;;;;;;;1.87;1.77;;;11.80;99.80;;;;;;10528765;28;20216;-81
2023/01/13 00:44:53;;;;;;;2.00;1.60;;;11.70;99.70;;;;;;10544014;28;20619;-81
2023/01/13 00:49:57;;;;;;;2.83;1.90;;;11.70;99.70;;;;;;10540731;28;20316;-81
2023/01/13 00:54:59;;;;;;;1.80;1.70;;;11.80;99.50;;;;;;10547205;28;20318;-81
2023/01/13 01:00:01;;;;;;;2.87;1.93;;;11.80;99.60;;;;;;10536791;28;20223;-82
2023/01/13 01:05:06;;;;;;;3.60;2.10;;;11.70;99.50;;;;;;10516172;28;20229;-82
2023/01/13 01:10:17;;;;;;;1.77;1.63;;;11.70;99.30;;;;;;10540596;28;20310;-81
2023/01/13 01:15:19;;;;;;;2.00;1.83;;;11.80;99.40;;;;;;10544667;28;20242;-82
2023/01/13 01:20:23;;;;;;;2.03;1.80;;;11.80;99.20;;;;;;10525591;28;20312;-82
2023/01/13 01:25:25;;;;;;;1.73;1.60;;;11.80;99.30;;;;;;10541909;28;20242;-82
2023/01/13 01:30:27;;;;;;;2.30;1.80;;;11.90;99.40;;;;;;10522084;28;20220;-81
2023/01/13 01:35:31;;;;;;;2.23;1.90;;;11.80;99.60;;;;;;10518812;28;20200;-81
2023/01/13 01:40:33;;;;;;;2.10;2.00;;;11.90;99.80;;;;;;10517917;28;20251;-82
2023/01/13 01:45:35;;;;;;;2.27;2.10;;;12.00;99.40;;;;;;10536920;28;20732;-82
2023/01/13 01:50:39;;;;;;;3.43;1.93;;;12.00;99.40;;;;;;10537698;28;20323;-82
2023/01/13 01:55:42;;;;;;;2.30;1.80;;;12.10;99.50;;;;;;10533122;28;20495;-82
2023/01/13 02:00:44;;;;;;;1.83;1.73;;;12.10;99.90;;;;;;10536787;28;20262;-79
2023/01/13 02:05:47;;;;;;;2.00;1.90;;;12.00;99.90;;;;;;10535559;28;20227;-80
2023/01/13 02:10:54;;;;;;;2.27;1.93;;;12.00;99.90;;;;;;10540834;28;20255;-82
2023/01/13 02:16:03;;;;;;;4.97;4.47;;;12.00;99.90;;;;;;10532106;28;20207;-82
2023/01/13 02:21:35;;;;;;;3.27;2.10;;;11.90;99.90;;;;;;10554508;28;20199;-80
2023/01/13 02:27:05;;;;;;;1.97;1.87;;;11.90;99.90;;;;;;10551074;28;20462;-80
2023/01/13 02:32:14;;;;;;;4.53;2.10;;;11.90;99.90;;;;;;10525735;28;20203;-80
2023/01/13 02:37:22;;;;;;;4.80;3.37;;;11.90;99.90;;;;;;10561606;28;20235;-81
2023/01/13 02:47:50;;;;;;;2.23;2.03;;;11.90;99.90;;;;;;10547888;28;20230;-81
2023/01/13 02:52:56;;;;;;;2.20;2.10;;;11.90;99.90;;;;;;10559345;27;20219;-81
2023/01/13 02:57:59;;;;;;;2.37;2.00;;;12.00;99.90;;;;;;10539402;28;20225;-81
2023/01/13 03:03:03;;;;;;;4.83;2.30;;;12.00;99.70;;;;;;10543040;28;20267;-80
2023/01/13 03:08:16;;;;;;;2.43;2.23;;;11.90;99.90;;;;;;10540084;28;21366;-82
2023/01/13 03:13:34;;;;;;;2.30;2.10;;;12.00;99.90;;;;;;10526671;28;20204;-82
2023/01/13 03:18:45;;;;;;;2.10;1.90;;;11.90;99.90;;;;;;10540730;28;20290;-82
2023/01/13 03:23:51;;;;;;;2.03;1.93;;;11.90;99.90;;;;;;10527094;28;20207;-81
2023/01/13 03:29:01;;;;;;;1.90;1.80;;;11.80;99.90;;;;;;10539408;28;20315;-82
2023/01/13 03:34:11;;;;;;;2.03;1.93;;;11.90;99.90;;;;;;10523056;28;20226;-82
2023/01/13 03:39:17;;;;;;;2.73;1.80;;;11.80;99.90;;;;;;10555443;27;20216;-81
2023/01/13 03:44:28;;;;;;;3.23;2.10;;;11.90;99.90;;;;;;10520166;28;20571;-81
2023/01/13 03:49:36;;;;;;;2.30;2.10;;;11.90;99.90;;;;;;10533061;28;20229;-83
2023/01/13 03:54:44;;;;;;;2.00;1.80;;;11.90;99.90;;;;;;10509910;28;20248;-82
2023/01/13 03:59:51;;;;;;;2.10;2.00;;;11.90;99.90;;;;;;10520830;28;20306;-82
2023/01/13 04:04:58;;;;;;;1.87;1.83;;;11.90;99.90;;;;;;10536804;28;20228;-82
2023/01/13 04:10:04;;;;;;;2.17;1.60;;;11.80;99.90;;;;;;10538174;28;20219;-82
2023/01/13 04:15:07;;;;;;;2.40;2.00;;;11.90;99.90;;;;;;10542520;28;20339;-82
2023/01/13 04:20:11;;;;;;;2.43;2.10;;;12.00;99.90;;;;;;10535020;28;20285;-82
2023/01/13 04:25:13;;;;;;;2.30;2.20;;;11.90;99.90;;;;;;10542862;28;20217;-81
2023/01/13 04:30:16;;;;;;;2.73;2.53;;;11.80;99.90;;;;;;10557696;27;20239;-82
2023/01/13 04:35:20;;;;;;;2.00;1.90;;;11.70;99.90;;;;;;10539326;28;20196;-81
2023/01/13 04:40:22;;;;;;;2.80;2.30;;;11.70;99.90;;;;;;10542794;28;20688;-81
2023/01/13 04:45:24;;;;;;;2.23;2.10;;;11.70;99.90;;;;;;10543050;28;20211;-82
2023/01/13 04:50:27;;;;;;;2.40;1.83;;;11.80;99.90;;;;;;10528871;28;20231;-80
2023/01/13 04:55:30;;;;;;;2.40;2.23;;;11.80;99.90;;;;;;10525798;28;20226;-81
2023/01/13 05:00:33;;;;;;;3.85;2.70;;;11.80;99.90;;;;;;10528341;28;20608;-81
2023/01/13 05:05:36;;;;;;;2.70;2.40;;;12.00;99.90;;;;;;10506142;28;20621;-82
2023/01/13 05:10:38;;;;;;;1.90;1.50;;;12.00;99.90;;;;;;10520646;28;20269;-81
2023/01/13 05:21:02;;;;;;;2.20;2.10;;;12.00;99.90;;;;;;10539667;28;20198;-80
2023/01/13 05:26:05;;;;;;;4.40;1.77;;;12.00;99.90;;;;;;10520262;28;20219;-82
2023/01/13 05:31:07;;;;;;;2.00;1.90;;;12.00;99.90;;;;;;10524206;28;20234;-82
2023/01/13 05:36:11;;;;;;;2.70;2.50;;;12.00;99.90;;;;;;10515784;28;20204;-81
2023/01/13 05:46:33;;;;;;;3.50;2.53;;;12.20;99.90;;;;;;10532586;28;20359;-81
2023/01/13 05:51:37;;;;;;;2.30;2.20;;;12.30;99.60;;;;;;10548148;28;20290;-79
2023/01/13 05:56:39;;;;;;;2.47;2.00;;;12.10;99.80;;;;;;10539892;27;20236;-76
2023/01/13 06:01:41;;;;;;;1.73;1.67;;;12.10;99.90;;;;;;10537774;28;20211;-80
2023/01/13 06:06:45;;;;;;;1.63;1.53;;;12.10;99.90;;;;;;10535621;28;21020;-77
2023/01/13 06:11:47;;;;;;;1.90;1.80;;;12.10;99.90;;;;;;10535082;28;20204;-78
2023/01/13 06:16:49;;;;;;;2.17;2.03;;;12.00;99.90;;;;;;10535191;28;20257;-78
2023/01/13 06:21:52;;;;;;;2.73;2.53;;;12.00;99.90;;;;;;10501740;28;20203;-78
2023/01/13 06:26:54;;;;;;;1.30;1.20;;;12.00;99.90;;;;;;10518048;28;20740;-78
2023/01/13 06:31:57;;;;;;;1.70;1.60;;;11.90;99.90;;;;;;10538355;28;20585;-79
2023/01/13 06:37:02;;;;;;;1.10;1.00;;;11.90;99.90;;;;;;10538528;28;20227;-78
2023/01/13 06:47:27;;;;;;;2.43;1.83;;;11.90;99.90;;;;;;10531603;28;20252;-78
2023/01/13 06:52:31;;;;;;;1.90;1.80;;;11.90;99.90;;;;;;10542806;28;20208;-80
2023/01/13 06:57:33;;;;;;;1.90;1.80;;;11.80;99.90;;;;;;10542601;28;20215;-80
2023/01/13 07:02:35;;;;;;;2.13;2.03;;;11.80;99.90;;;;;;10545427;28;20701;-79
2023/01/13 07:07:38;;;;;;;2.07;1.90;;;12.00;99.90;;;;;;10539164;28;20245;-79
2023/01/13 07:18:01;;;;;;;1.73;1.73;;;11.90;99.90;;;;;;10558594;28;20605;-79
2023/01/13 07:23:04;;;;;;;1.70;1.60;;;11.90;99.90;;;;;;10566327;28;20201;-80
2023/01/13 07:28:06;;;;;;;1.52;1.42;;;11.90;99.90;;;;;;10539472;28;20315;-80
2023/01/13 07:33:08;;;;;;;1.60;1.50;;;12.10;99.90;;;;;;10560827;28;20250;-80
2023/01/13 07:38:12;;;;;;;1.47;1.30;;;12.20;99.90;;;;;;10576222;27;20280;-80
2023/01/13 07:43:32;;;;;;;2.00;1.50;;;12.20;99.90;;;;;;10556628;28;20212;-80
2023/01/13 07:48:34;;;;;;;2.60;1.90;;;12.00;99.90;;;;;;10554623;28;20711;-81
2023/01/13 07:53:38;;;;;;;1.70;1.60;;;12.00;99.90;;;;;;10541552;28;20231;-80
2023/01/13 07:58:40;;;;;;;1.30;1.30;;;12.00;99.90;;;;;;10546829;28;20242;-81
2023/01/13 08:03:43;;;;;;;1.90;1.80;;;12.00;99.90;;;;;;10543863;28;20196;-81
2023/01/13 08:08:47;;;;;;;1.63;1.53;;;12.00;99.90;;;;;;10529243;28;20237;-80
2023/01/13 08:13:55;;;;;;;1.60;1.50;;;12.10;99.90;;;;;;10543775;28;20197;-80
2023/01/13 08:18:58;;;;;;;1.80;1.70;;;12.10;99.90;;;;;;10550139;28;20222;-79
2023/01/13 08:24:02;;;;;;;1.60;1.50;;;12.20;99.90;;;;;;10548723;28;20206;-79
2023/01/13 08:29:04;;;;;;;2.10;2.00;;;12.20;99.90;;;;;;10552375;28;20564;-79
2023/01/13 08:34:06;;;;;;;2.30;1.90;;;12.20;99.90;;;;;;10549942;28;20221;-79
2023/01/13 08:39:09;;;;;;;2.50;2.30;;;12.30;99.90;;;;;;10553430;28;20240;-79
2023/01/13 08:44:11;;;;;;;2.80;2.70;;;12.20;99.90;;;;;;10550087;28;20262;-79
2023/01/13 08:49:13;;;;;;;3.33;3.23;;;12.20;99.90;;;;;;10554389;28;20342;-79
2023/01/13 08:54:18;;;;;;;3.90;3.80;;;11.90;99.90;;;;;;10550472;28;20611;-79
2023/01/13 08:59:20;;;;;;;4.07;3.97;;;11.60;99.90;;;;;;10543994;28;20268;-79
2023/01/13 09:04:24;;;;;;;2.93;2.70;;;11.50;99.90;;;;;;10549640;28;20667;-79
2023/01/13 09:09:28;;;;;;;3.80;3.60;;;11.40;99.90;;;;;;10550855;28;20310;-79
2023/01/13 09:14:32;;;;;;;3.80;3.63;;;11.40;99.90;;;;;;10545143;28;20196;-79
2023/01/13 09:19:35;;;;;;;4.40;4.20;;;11.50;99.90;;;;;;10544548;28;20283;-79
2023/01/13 09:24:39;;;;;;;3.40;3.30;;;11.50;99.90;;;;;;10551603;28;20199;-81
2023/01/13 09:29:41;;;;;;;3.30;3.20;;;11.40;99.90;;;;;;10542501;28;20220;-78
2023/01/13 09:35:01;;;;;;;3.50;3.40;;;11.20;99.90;;;;;;10548100;28;20676;-78
2023/01/13 09:40:07;;;;;;;4.10;3.90;;;11.00;99.90;;;;;;10545273;28;20687;-78
2023/01/13 09:45:14;;;;;;;11.00;10.07;;;10.90;99.90;;;;;;10541107;28;20209;-78
2023/01/13 09:50:41;;;;;;;9.87;8.87;;;10.80;99.90;;;;;;10540134;28;20258;-78
2023/01/13 09:55:45;;;;;;;3.33;3.23;;;10.90;99.90;;;;;;10542150;28;20207;-78
2023/01/13 10:00:57;;;;;;;3.40;3.30;;;10.90;99.90;;;;;;10527591;28;20230;-79
2023/01/13 10:06:08;;;;;;;2.90;2.80;;;10.90;99.90;;;;;;10533642;28;20200;-80
2023/01/13 10:16:45;;;;;;;1.90;1.80;;;11.10;99.90;;;;;;10508140;28;20227;-80
2023/01/13 10:22:14;;;;;;;3.00;2.90;;;11.10;99.90;;;;;;10536839;28;20203;-80
2023/01/13 10:27:23;;;;;;;2.90;2.70;;;11.10;99.90;;;;;;10542129;28;20231;-80
2023/01/13 10:32:25;;;;;;;3.30;3.10;;;11.00;99.90;;;;;;10544771;28;21142;-79
2023/01/13 10:37:28;;;;;;;5.33;2.00;;;11.00;99.90;;;;;;10543590;28;20540;-79
2023/01/13 10:42:32;;;;;;;2.43;2.33;;;11.10;99.90;;;;;;10540756;28;20200;-79
2023/01/13 10:47:36;;;;;;;2.63;2.53;;;11.20;99.90;;;;;;10541865;28;20236;-80
2023/01/13 10:52:41;;;;;;;3.87;3.33;;;11.40;99.90;;;;;;10544081;28;20275;-80
2023/01/13 10:57:45;;;;;;;3.60;3.40;;;11.60;99.90;;;;;;10541802;28;20527;-79
2023/01/13 11:03:16;;;;;;;3.63;3.42;;;11.70;99.90;;;;;;10549703;28;20202;-79
2023/01/13 11:08:20;;;;;;;3.20;3.10;;;11.90;99.90;;;;;;10547213;28;20241;-81
2023/01/13 11:13:30;;;;;;;3.65;3.47;;;11.70;99.90;;;;;;10558268;28;20199;-79
2023/01/13 11:18:42;;;;;;;2.40;2.20;;;11.60;99.90;;;;;;10548991;28;20269;-80
2023/01/13 11:23:48;;;;;;;2.23;2.13;;;11.40;99.90;;;;;;10544473;28;20234;-80
2023/01/13 11:28:58;;;;;;;3.08;2.88;;;11.10;99.90;;;;;;10545498;28;20617;-82
2023/01/13 11:34:08;;;;;;;2.40;2.30;;;11.10;99.90;;;;;;10550877;28;20253;-80
2023/01/13 11:39:19;;;;;;;5.20;3.90;;;11.10;99.90;;;;;;10552860;28;20279;-80
2023/01/13 11:44:29;;;;;;;2.07;1.97;;;10.90;99.90;;;;;;10558646;28;20676;-80
2023/01/13 11:49:33;;;;;;;3.58;2.50;;;10.80;99.90;;;;;;10553192;28;20315;-79
2023/01/13 11:54:52;;;;;;;2.80;2.60;;;10.80;99.90;;;;;;10571083;27;20238;-78
2023/01/13 12:00:28;;;;;;;1.93;1.80;;;10.90;99.90;;;;;;10539541;28;20283;-79
2023/01/13 12:05:35;;;;;;;4.00;3.60;;;10.90;99.90;;;;;;10553046;28;20195;-78
2023/01/13 12:10:49;;;;;;;3.10;2.90;;;11.00;99.90;;;;;;10549524;28;20231;-78
2023/01/13 12:16:18;;;;;;;2.47;2.27;;;10.90;99.90;;;;;;10548277;28;20199;-78
2023/01/13 12:21:21;;;;;;;2.20;2.10;;;10.80;99.90;;;;;;10557302;28;20199;-79
2023/01/13 12:26:24;;;;;;;2.20;2.10;;;10.70;99.90;;;;;;10540378;28;20224;-78
2023/01/13 12:31:28;;;;;;;5.40;2.90;;;10.70;99.90;;;;;;10538172;28;20238;-77
2023/01/13 12:36:41;;;;;;;2.80;2.60;;;10.80;99.90;;;;;;10520668;28;20230;-77
2023/01/13 12:47:35;;;;;;;2.47;2.27;;;10.90;99.90;;;;;;10473969;28;20221;-80
2023/01/13 12:52:43;;;;;;;7.63;6.20;;;10.90;99.90;;;;;;10529114;28;20199;-79
2023/01/13 12:57:57;;;;;;;6.78;3.40;;;10.90;99.90;;;;;;10531204;28;20236;-79
2023/01/13 13:03:33;;;;;;;3.40;2.43;;;11.00;99.90;;;;;;10554471;27;20198;-78
2023/01/13 13:08:52;;;;;;;3.67;2.57;;;11.00;99.90;;;;;;10534385;28;20232;-79
2023/01/13 13:13:55;;;;;;;6.07;2.77;;;10.90;99.90;;;;;;10487593;28;20204;-78
2023/01/13 13:19:48;;;;;;;5.97;3.13;;;10.80;99.90;;;;;;10533679;28;20298;-79
2023/01/13 13:25:21;;;;;;;7.07;2.30;;;10.80;99.90;;;;;;10523872;28;20204;-78
2023/01/13 13:30:28;;;;;;;4.50;2.77;;;10.80;99.90;;;;;;10531507;28;20344;-79
2023/01/13 13:35:51;;;;;;;4.53;2.53;;;10.70;99.90;;;;;;10531122;28;20908;-79
2023/01/13 13:51:53;;;;;;;4.28;2.70;;;11.00;99.90;;;;;;10518206;22;20281;-81
2023/01/13 13:56:57;;;;;;;5.93;2.83;;;11.10;99.70;;;;;;10488405;28;20197;-81
2023/01/13 14:02:02;;;;;;;3.50;2.30;;;11.20;99.90;;;;;;10475131;28;20700;-81
2023/01/13 14:07:17;;;;;;;3.53;2.87;;;11.30;99.90;;;;;;10479153;28;20826;-81
2023/01/13 14:12:21;;;;;;;4.07;2.47;;;11.40;99.90;;;;;;10474525;28;20205;-81
2023/01/13 14:17:25;;;;;;;2.83;2.10;;;11.40;99.90;;;;;;10473231;28;20560;-81
2023/01/13 14:22:28;;;;;;;2.63;2.33;;;11.10;99.90;;;;;;10473642;28;20307;-81
2023/01/13 14:27:31;;;;;;;2.60;2.33;;;10.70;99.90;;;;;;10471518;28;20683;-81
2023/01/13 14:32:36;;;;;;;2.67;2.47;;;10.40;99.90;;;;;;10482708;28;20206;-82
2023/01/13 14:37:41;;;;;;;2.47;2.37;;;10.10;99.90;;;;;;10484019;28;20217;-81
2023/01/13 14:42:43;;;;;;;2.27;2.17;;;9.90;99.90;;;;;;10484500;28;20305;-81
2023/01/13 14:47:52;;;;;;;6.47;5.93;;;9.70;99.90;;;;;;10494992;28;20637;-80
2023/01/13 14:52:56;;;;;;;3.20;2.20;;;9.70;99.90;;;;;;10479839;28;20204;-80
2023/01/13 14:58:23;;;;;;;10.90;9.47;;;9.70;99.90;;;;;;10486980;28;20577;-81
2023/01/13 15:03:25;;;;;;;3.30;3.00;;;9.60;99.90;;;;;;10484807;28;20292;-80
2023/01/13 15:08:36;;;;;;;5.13;2.73;;;9.50;99.90;;;;;;10479871;28;20221;-80
2023/01/13 15:13:41;;;;;;;4.10;2.00;;;9.50;99.90;;;;;;10481767;28;20205;-81
2023/01/13 15:18:43;;;;;;;2.40;2.27;;;9.40;99.90;;;;;;10484117;28;20231;-82
2023/01/13 15:23:47;;;;;;;2.87;2.67;;;9.30;99.90;;;;;;10480514;28;20739;-81
2023/01/13 15:28:50;;;;;;;3.40;2.90;;;9.30;99.90;;;;;;10486624;28;20228;-81
2023/01/13 15:33:52;;;;;;;3.37;2.63;;;9.40;99.90;;;;;;10479105;28;20209;-81
2023/01/13 15:38:56;;;;;;;4.00;2.70;;;9.50;99.90;;;;;;10476775;28;20213;-81
2023/01/13 15:49:23;;;;;;;3.63;1.90;;;9.60;99.90;;;;;;10465685;28;20241;-80
2023/01/13 15:54:26;;;;;;;3.07;2.80;;;9.50;99.90;;;;;;10464756;28;20292;-82
2023/01/13 15:59:28;;;;;;;6.33;3.40;;;9.50;99.90;;;;;;10475542;28;20220;-81
2023/01/13 16:04:30;;;;;;;4.90;2.90;;;9.40;99.90;;;;;;10480263;28;20204;-81
2023/01/13 16:09:34;;;;;;;3.67;2.57;;;9.40;99.90;;;;;;10481713;28;20759;-81
2023/01/13 16:14:36;;;;;;;3.63;2.90;;;9.40;99.90;;;;;;10480373;28;20208;-81
2023/01/13 16:19:38;;;;;;;2.80;2.57;;;9.40;99.90;;;;;;10479391;28;20707;-81
2023/01/13 16:24:42;;;;;;;4.50;2.60;;;9.40;99.90;;;;;;10482961;28;20327;-80
2023/01/13 16:29:45;;;;;;;5.30;2.97;;;9.40;99.90;;;;;;10479624;28;20228;-83
2023/01/13 16:34:47;;;;;;;3.60;2.80;;;9.50;99.90;;;;;;10473572;28;20676;-81
2023/01/13 16:39:51;;;;;;;4.00;2.77;;;9.50;99.90;;;;;;10502134;28;20257;-83
2023/01/13 16:44:53;;;;;;;4.10;3.00;;;9.50;99.90;;;;;;10479279;28;20204;-83
2023/01/13 16:49:55;;;;;;;4.17;2.83;;;9.50;99.90;;;;;;10479145;28;20233;-83
2023/01/13 16:55:00;;;;;;;3.23;2.90;;;9.50;99.90;;;;;;10480099;28;20223;-83
2023/01/13 17:00:04;;;;;;;3.00;2.50;;;9.50;99.90;;;;;;10502642;28;20567;-83
2023/01/13 17:05:06;;;;;;;5.70;3.10;;;9.50;99.90;;;;;;10463949;28;20235;-82
2023/01/13 17:10:14;;;;;;;3.40;3.10;;;9.40;99.90;;;;;;10484651;28;20238;-83
2023/01/13 17:15:18;;;;;;;12.57;8.47;;;9.40;99.90;;;;;;10484526;28;20205;-82
2023/01/13 17:20:20;;;;;;;6.20;3.80;;;9.40;99.90;;;;;;10463535;28;20221;-81
2023/01/13 17:25:24;;;;;;;5.80;3.40;;;9.60;99.90;;;;;;10480857;28;20208;-82
2023/01/13 17:30:26;;;;;;;7.17;4.33;;;9.80;99.90;;;;;;10485027;28;20242;-82
2023/01/13 17:35:28;;;;;;;7.68;4.22;;;9.80;99.90;;;;;;10503998;28;20205;-81
2023/01/13 17:40:31;;;;;;;5.67;3.33;;;9.90;99.90;;;;;;10481776;28;20216;-82
2023/01/13 17:45:33;;;;;;;7.87;4.33;;;9.90;99.90;;;;;;10479840;28;20204;-81
2023/01/13 17:50:35;;;;;;;7.00;4.57;;;9.80;99.90;;;;;;10482812;28;20715;-82
2023/01/13 17:55:39;;;;;;;4.23;3.67;;;9.80;99.90;;;;;;10481288;28;20392;-82
2023/01/13 18:00:41;;;;;;;5.20;3.33;;;9.80;99.90;;;;;;10487407;28;20231;-82
2023/01/13 18:05:45;;;;;;;5.47;4.20;;;9.80;99.90;;;;;;10475298;28;20200;-82
2023/01/13 18:10:53;;;;;;;5.83;4.23;;;9.80;99.90;;;;;;10474749;28;20251;-82
2023/01/13 18:16:04;;;;;;;6.20;4.47;;;9.90;99.90;;;;;;10480911;28;20211;-82
2023/01/13 18:31:47;;;;;;;3.17;2.93;;;9.80;99.90;;;;;;10464434;28;21283;-81
2023/01/13 18:36:49;;;;;;;3.90;3.20;;;9.80;99.90;;;;;;10476468;28;20204;-82
2023/01/13 18:47:12;;;;;;;4.43;3.03;;;9.70;99.90;;;;;;10469049;28;20664;-82
2023/01/13 18:52:14;;;;;;;5.97;3.07;;;9.50;99.90;;;;;;10475591;28;20256;-81
2023/01/13 18:57:20;;;;;;;2.97;2.37;;;9.40;99.90;;;;;;10477145;28;20200;-82
2023/01/13 19:02:25;;;;;;;4.60;2.70;;;9.50;99.90;;;;;;10478073;28;20197;-82
2023/01/13 19:07:28;;;;;;;5.43;2.70;;;9.40;99.90;;;;;;10477886;28;20626;-82
2023/01/13 19:12:32;;;;;;;4.82;3.53;;;9.30;99.90;;;;;;10478244;28;20270;-82
2023/01/13 19:17:35;;;;;;;4.45;3.17;;;9.30;99.90;;;;;;10478380;28;20230;-83
2023/01/13 19:22:37;;;;;;;4.30;2.97;;;9.50;99.90;;;;;;10496305;28;20287;-83
2023/01/13 19:27:41;;;;;;;4.93;2.40;;;9.40;99.90;;;;;;10487843;28;20227;-82
2023/01/13 19:32:43;;;;;;;5.80;2.50;;;9.30;99.90;;;;;;10495605;28;20699;-82
2023/01/13 19:37:45;;;;;;;6.07;5.20;;;9.10;99.90;;;;;;10506875;28;20235;-81
2023/01/13 19:48:08;;;;;;;2.63;2.40;;;9.00;99.90;;;;;;10529342;22;20226;-80
2023/01/13 19:53:16;;;;;;;5.00;2.40;;;9.00;99.90;;;;;;10580568;28;20204;-80
2023/01/13 19:58:22;;;;;;;2.90;2.60;;;9.00;99.90;;;;;;10559536;28;20215;-80
2023/01/13 20:03:29;;;;;;;6.10;3.05;;;9.00;99.90;;;;;;10539990;28;20656;-79
2023/01/13 20:08:31;;;;;;;4.43;3.00;;;9.20;99.90;;;;;;10540227;28;20219;-79
2023/01/13 20:13:35;;;;;;;4.77;3.17;;;9.40;99.90;;;;;;10523100;28;20690;-80
2023/01/13 20:18:37;;;;;;;8.20;3.60;;;9.50;99.90;;;;;;10542769;28;20244;-79
2023/01/13 20:23:39;;;;;;;6.40;3.27;;;9.40;99.90;;;;;;10544912;28;20192;-80
2023/01/13 20:28:42;;;;;;;4.43;2.80;;;9.40;99.90;;;;;;10528245;28;20239;-80
2023/01/13 20:33:49;;;;;;;5.23;3.20;;;9.40;99.90;;;;;;10524406;28;20311;-80
2023/01/13 20:38:51;;;;;;;7.67;2.87;;;9.40;99.90;;;;;;10536564;28;20253;-79
2023/01/13 20:43:55;;;;;;;6.17;3.73;;;9.40;99.90;;;;;;10504374;28;20267;-79
2023/01/13 20:48:57;;;;;;;5.07;2.83;;;9.30;99.90;;;;;;10523971;28;20211;-80
2023/01/13 20:53:59;;;;;;;5.27;3.10;;;9.40;99.90;;;;;;10545963;28;20202;-80
2023/01/13 20:59:02;;;;;;;7.33;2.80;;;9.30;99.90;;;;;;10510612;28;20283;-80
2023/01/13 21:04:05;;;;;;;16.87;10.77;;;9.20;99.90;;;;;;10506078;28;20200;-80
2023/01/13 21:09:08;;;;;;;5.37;4.83;;;9.20;99.90;;;;;;10512896;28;20255;-80
2023/01/13 21:19:37;;;;;;;5.83;2.77;;;9.20;99.90;;;;;;10522945;28;20267;-79
2023/01/13 21:24:39;;;;;;;5.50;3.37;;;9.30;99.90;;;;;;10544119;28;20600;-79
2023/01/13 21:29:43;;;;;;;7.20;3.50;;;9.20;99.90;;;;;;10531252;28;20222;-79
2023/01/13 21:34:45;;;;;;;4.60;2.80;;;9.10;99.90;;;;;;10532548;28;20188;-79
2023/01/13 21:39:47;;;;;;;5.93;3.77;;;9.10;99.90;;;;;;10525452;28;20222;-79
2023/01/13 21:50:12;;;;;;;5.33;3.00;;;8.80;99.90;;;;;;10522354;28;20213;-79
2023/01/13 21:55:20;;;;;;;4.70;3.30;;;8.80;99.90;;;;;;10533155;28;20242;-80
2023/01/13 22:00:25;;;;;;;4.57;3.50;;;8.80;99.90;;;;;;10512531;28;20208;-80
2023/01/13 22:05:27;;;;;;;5.32;3.35;;;8.80;99.90;;;;;;10505858;28;20196;-80
2023/01/13 22:10:31;;;;;;;3.40;3.10;;;8.90;99.90;;;;;;10522828;28;20222;-80
2023/01/13 22:15:34;;;;;;;5.40;3.05;;;9.00;99.90;;;;;;10510680;28;20220;-80
2023/01/13 22:20:36;;;;;;;4.07;3.47;;;9.00;99.90;;;;;;10493897;28;20239;-80
2023/01/13 22:25:38;;;;;;;4.33;3.63;;;8.90;99.90;;;;;;10524854;28;20237;-79
2023/01/13 22:30:42;;;;;;;5.40;3.40;;;8.80;99.90;;;;;;10498129;28;20231;-80
2023/01/13 22:35:44;;;;;;;6.13;3.30;;;8.70;99.90;;;;;;10522135;28;20610;-79
2023/01/13 22:40:54;;;;;;;8.30;3.80;;;8.60;99.90;;;;;;10506097;28;20291;-78
2023/01/13 22:45:59;;;;;;;6.30;4.30;;;8.40;99.90;;;;;;10520148;28;20222;-80
2023/01/13 22:51:04;;;;;;;5.82;4.13;;;8.40;99.90;;;;;;10518664;28;20220;-80
2023/01/13 22:56:08;;;;;;;6.47;3.63;;;8.50;99.90;;;;;;10545273;28;20204;-79
2023/01/13 23:01:13;;;;;;;7.72;3.60;;;8.40;99.90;;;;;;10526608;28;20220;-80
2023/01/13 23:06:16;;;;;;;6.37;3.70;;;8.40;99.90;;;;;;10512172;28;20197;-80
2023/01/13 23:11:22;;;;;;;5.25;4.05;;;8.30;99.90;;;;;;10528639;28;20223;-80
2023/01/13 23:16:26;;;;;;;4.87;4.10;;;8.20;99.90;;;;;;10512356;28;20567;-80
2023/01/13 23:21:31;;;;;;;5.20;3.70;;;8.10;99.90;;;;;;10527942;28;20511;-80
2023/01/13 23:26:34;;;;;;;8.47;5.47;;;7.90;99.90;;;;;;10525265;28;20273;-79
2023/01/13 23:31:38;;;;;;;9.60;4.13;;;7.80;99.90;;;;;;10529272;28;20711;-79
2023/01/13 23:36:42;;;;;;;6.13;5.30;;;7.70;99.90;;;;;;10525537;28;20249;-82
2023/01/13 23:41:44;;;;;;;4.50;3.43;;;7.70;99.90;;;;;;10533601;28;20258;-81
2023/01/13 23:46:47;;;;;;;7.13;4.17;;;7.60;99.90;;;;;;10528671;28;20192;-80
2023/01/13 23:51:50;;;;;;;9.23;4.10;;;7.60;99.90;;;;;;10533782;28;20262;-82
2023/01/13 23:56:52;;;;;;;4.30;3.30;;;7.80;99.90;;;;;;10523394;28;20200;-83
